sensor_id;sensor_type;location;lat;lon;timestamp;P1;durP1;ratioP1;P2;durP2;ratioP2
3309;SDS011;1667;53.238;10.394;2023-04-29T00:01:02;17.07;;;12.37;;
3309;SDS011;1667;53.238;10.394;2023-04-29T00:06:02;17.63;;;13.00;;
3309;SDS011;1667;53.238;10.394;2023-04-29T00:24:26;16.27;;;9.93;;
3309;SDS011;1667;53.238;10.394;2023-04-29T00:29:25;14.87;;;8.63;;
3309;SDS011;1667;53.238;10.394;2023-04-29T00:34:23;12.40;;;9.90;;
3309;SDS011;1667;53.238;10.394;2023-04-29T00:39:22;14.13;;;10.57;;
3309;SDS011;1667;53.238;10.394;2023-04-29T00:44:22;14.80;;;10.33;;
3309;SDS011;1667;53.238;10.394;2023-04-29T00:49:21;13.47;;;10.60;;
3309;SDS011;1667;53.238;10.394;2023-04-29T00:54:19;10.73;;;9.13;;
3309;SDS011;1667;53.238;10.394;2023-04-29T00:59:18;11.80;;;9.60;;
3309;SDS011;1667;53.238;10.394;2023-04-29T01:04:20;13.20;;;10.17;;
3309;SDS011;1667;53.238;10.394;2023-04-29T01:09:24;13.17;;;9.93;;
3309;SDS011;1667;53.238;10.394;2023-04-29T01:14:29;13.30;;;10.10;;
3309;SDS011;1667;53.238;10.394;2023-04-29T01:19:36;13.93;;;9.70;;
3309;SDS011;1667;53.238;10.394;2023-04-29T01:24:42;10.67;;;8.70;;
3309;SDS011;1667;53.238;10.394;2023-04-29T01:29:43;11.73;;;8.90;;
3309;SDS011;1667;53.238;10.394;2023-04-29T01:34:50;12.40;;;10.07;;
3309;SDS011;1667;53.238;10.394;2023-04-29T01:39:59;13.70;;;10.30;;
3309;SDS011;1667;53.238;10.394;2023-04-29T01:45:10;13.13;;;9.83;;
3309;SDS011;1667;53.238;10.394;2023-04-29T01:50:13;11.60;;;8.87;;
3309;SDS011;1667;53.238;10.394;2023-04-29T01:55:13;14.70;;;9.50;;
3309;SDS011;1667;53.238;10.394;2023-04-29T02:00:27;11.53;;;8.87;;
3309;SDS011;1667;53.238;10.394;2023-04-29T02:05:26;14.33;;;9.50;;
3309;SDS011;1667;53.238;10.394;2023-04-29T02:10:30;12.50;;;10.00;;
3309;SDS011;1667;53.238;10.394;2023-04-29T02:15:43;15.13;;;9.83;;
3309;SDS011;1667;53.238;10.394;2023-04-29T02:20:42;11.00;;;7.80;;
3309;SDS011;1667;53.238;10.394;2023-04-29T02:25:42;11.40;;;9.07;;
3309;SDS011;1667;53.238;10.394;2023-04-29T02:30:40;12.47;;;9.20;;
3309;SDS011;1667;53.238;10.394;2023-04-29T02:35:39;11.27;;;9.10;;
3309;SDS011;1667;53.238;10.394;2023-04-29T02:40:39;13.07;;;10.73;;
3309;SDS011;1667;53.238;10.394;2023-04-29T02:45:40;14.10;;;10.30;;
3309;SDS011;1667;53.238;10.394;2023-04-29T02:50:39;11.17;;;8.97;;
3309;SDS011;1667;53.238;10.394;2023-04-29T02:55:38;14.13;;;11.53;;
3309;SDS011;1667;53.238;10.394;2023-04-29T03:00:40;10.60;;;9.23;;
3309;SDS011;1667;53.238;10.394;2023-04-29T03:05:39;13.87;;;9.70;;
3309;SDS011;1667;53.238;10.394;2023-04-29T03:10:37;11.30;;;9.43;;
3309;SDS011;1667;53.238;10.394;2023-04-29T03:15:37;15.57;;;9.90;;
3309;SDS011;1667;53.238;10.394;2023-04-29T03:20:37;14.33;;;10.10;;
3309;SDS011;1667;53.238;10.394;2023-04-29T03:32:09;13.17;;;10.87;;
3309;SDS011;1667;53.238;10.394;2023-04-29T03:37:10;12.23;;;9.37;;
3309;SDS011;1667;53.238;10.394;2023-04-29T03:42:14;12.90;;;9.80;;
3309;SDS011;1667;53.238;10.394;2023-04-29T03:47:13;10.50;;;8.20;;
3309;SDS011;1667;53.238;10.394;2023-04-29T03:52:13;15.73;;;10.40;;
3309;SDS011;1667;53.238;10.394;2023-04-29T03:57:13;13.13;;;9.83;;
3309;SDS011;1667;53.238;10.394;2023-04-29T04:02:12;14.87;;;10.47;;
3309;SDS011;1667;53.238;10.394;2023-04-29T04:07:12;13.37;;;11.20;;
3309;SDS011;1667;53.238;10.394;2023-04-29T04:12:43;15.40;;;10.77;;
3309;SDS011;1667;53.238;10.394;2023-04-29T04:17:43;15.50;;;12.00;;
3309;SDS011;1667;53.238;10.394;2023-04-29T04:22:43;14.53;;;9.03;;
3309;SDS011;1667;53.238;10.394;2023-04-29T04:27:47;14.40;;;10.07;;
3309;SDS011;1667;53.238;10.394;2023-04-29T04:33:05;15.80;;;11.87;;
3309;SDS011;1667;53.238;10.394;2023-04-29T04:38:07;19.27;;;13.10;;
3309;SDS011;1667;53.238;10.394;2023-04-29T04:43:07;22.07;;;12.77;;
3309;SDS011;1667;53.238;10.394;2023-04-29T04:48:09;20.20;;;12.73;;
3309;SDS011;1667;53.238;10.394;2023-04-29T04:53:10;19.80;;;13.23;;
3309;SDS011;1667;53.238;10.394;2023-04-29T04:58:22;15.97;;;12.63;;
3309;SDS011;1667;53.238;10.394;2023-04-29T05:03:22;18.60;;;12.60;;
3309;SDS011;1667;53.238;10.394;2023-04-29T05:08:23;14.63;;;10.40;;
3309;SDS011;1667;53.238;10.394;2023-04-29T05:13:24;19.33;;;13.20;;
3309;SDS011;1667;53.238;10.394;2023-04-29T05:18:23;16.50;;;12.40;;
3309;SDS011;1667;53.238;10.394;2023-04-29T05:23:23;21.60;;;13.47;;
3309;SDS011;1667;53.238;10.394;2023-04-29T05:28:22;21.30;;;14.50;;
3309;SDS011;1667;53.238;10.394;2023-04-29T05:33:24;22.93;;;13.70;;
3309;SDS011;1667;53.238;10.394;2023-04-29T05:38:24;21.67;;;14.70;;
3309;SDS011;1667;53.238;10.394;2023-04-29T05:43:36;20.73;;;13.10;;
3309;SDS011;1667;53.238;10.394;2023-04-29T05:48:35;19.03;;;13.50;;
3309;SDS011;1667;53.238;10.394;2023-04-29T05:53:35;20.50;;;13.77;;
3309;SDS011;1667;53.238;10.394;2023-04-29T05:58:34;20.30;;;14.40;;
3309;SDS011;1667;53.238;10.394;2023-04-29T06:03:32;17.17;;;12.20;;
3309;SDS011;1667;53.238;10.394;2023-04-29T06:08:53;17.10;;;12.80;;
3309;SDS011;1667;53.238;10.394;2023-04-29T06:13:55;22.27;;;12.80;;
3309;SDS011;1667;53.238;10.394;2023-04-29T06:18:54;20.23;;;14.10;;
3309;SDS011;1667;53.238;10.394;2023-04-29T06:23:54;19.63;;;12.70;;
3309;SDS011;1667;53.238;10.394;2023-04-29T06:28:52;17.80;;;11.50;;
3309;SDS011;1667;53.238;10.394;2023-04-29T06:33:51;19.77;;;12.80;;
3309;SDS011;1667;53.238;10.394;2023-04-29T06:38:49;18.00;;;13.10;;
3309;SDS011;1667;53.238;10.394;2023-04-29T06:44:08;19.80;;;12.77;;
3309;SDS011;1667;53.238;10.394;2023-04-29T06:49:15;13.23;;;10.07;;
3309;SDS011;1667;53.238;10.394;2023-04-29T06:54:14;17.43;;;12.60;;
3309;SDS011;1667;53.238;10.394;2023-04-29T06:59:14;16.03;;;11.50;;
3309;SDS011;1667;53.238;10.394;2023-04-29T07:04:13;15.87;;;11.60;;
3309;SDS011;1667;53.238;10.394;2023-04-29T07:09:11;12.30;;;9.80;;
3309;SDS011;1667;53.238;10.394;2023-04-29T07:14:10;14.03;;;10.60;;
3309;SDS011;1667;53.238;10.394;2023-04-29T07:19:10;11.40;;;9.33;;
3309;SDS011;1667;53.238;10.394;2023-04-29T07:24:08;13.80;;;9.87;;
3309;SDS011;1667;53.238;10.394;2023-04-29T07:29:07;18.60;;;9.90;;
3309;SDS011;1667;53.238;10.394;2023-04-29T07:34:05;14.63;;;9.80;;
3309;SDS011;1667;53.238;10.394;2023-04-29T07:39:06;13.07;;;8.27;;
3309;SDS011;1667;53.238;10.394;2023-04-29T07:44:05;10.80;;;7.97;;
3309;SDS011;1667;53.238;10.394;2023-04-29T07:49:04;11.93;;;8.57;;
3309;SDS011;1667;53.238;10.394;2023-04-29T07:54:03;12.30;;;8.23;;
3309;SDS011;1667;53.238;10.394;2023-04-29T07:59:02;9.07;;;6.60;;
3309;SDS011;1667;53.238;10.394;2023-04-29T08:04:01;10.10;;;7.60;;
3309;SDS011;1667;53.238;10.394;2023-04-29T08:09:04;10.13;;;6.50;;
3309;SDS011;1667;53.238;10.394;2023-04-29T08:14:04;8.50;;;6.60;;
3309;SDS011;1667;53.238;10.394;2023-04-29T08:19:03;13.07;;;7.00;;
3309;SDS011;1667;53.238;10.394;2023-04-29T08:24:02;10.97;;;6.83;;
3309;SDS011;1667;53.238;10.394;2023-04-29T08:29:01;5.60;;;5.00;;
3309;SDS011;1667;53.238;10.394;2023-04-29T08:34:01;10.37;;;6.80;;
3309;SDS011;1667;53.238;10.394;2023-04-29T08:39:00;11.03;;;7.30;;
3309;SDS011;1667;53.238;10.394;2023-04-29T08:43:58;12.87;;;7.83;;
3309;SDS011;1667;53.238;10.394;2023-04-29T08:48:57;9.90;;;7.47;;
3309;SDS011;1667;53.238;10.394;2023-04-29T08:53:57;15.73;;;7.97;;
3309;SDS011;1667;53.238;10.394;2023-04-29T08:58:56;8.43;;;6.20;;
3309;SDS011;1667;53.238;10.394;2023-04-29T09:03:59;10.60;;;6.50;;
3309;SDS011;1667;53.238;10.394;2023-04-29T09:09:07;10.87;;;6.53;;
3309;SDS011;1667;53.238;10.394;2023-04-29T09:14:07;9.37;;;6.80;;
3309;SDS011;1667;53.238;10.394;2023-04-29T09:19:06;9.43;;;6.83;;
3309;SDS011;1667;53.238;10.394;2023-04-29T09:24:04;13.47;;;6.83;;
3309;SDS011;1667;53.238;10.394;2023-04-29T09:29:07;11.60;;;7.23;;
3309;SDS011;1667;53.238;10.394;2023-04-29T09:34:09;10.00;;;6.50;;
3309;SDS011;1667;53.238;10.394;2023-04-29T09:39:09;4.10;;;3.70;;
3309;SDS011;1667;53.238;10.394;2023-04-29T09:44:10;10.97;;;6.80;;
3309;SDS011;1667;53.238;10.394;2023-04-29T09:49:20;8.77;;;6.53;;
3309;SDS011;1667;53.238;10.394;2023-04-29T09:54:21;7.70;;;6.00;;
3309;SDS011;1667;53.238;10.394;2023-04-29T09:59:22;11.60;;;6.10;;
3309;SDS011;1667;53.238;10.394;2023-04-29T10:04:21;8.13;;;6.63;;
3309;SDS011;1667;53.238;10.394;2023-04-29T10:09:22;7.53;;;5.83;;
3309;SDS011;1667;53.238;10.394;2023-04-29T10:14:22;7.53;;;6.77;;
3309;SDS011;1667;53.238;10.394;2023-04-29T10:19:24;8.80;;;7.20;;
3309;SDS011;1667;53.238;10.394;2023-04-29T10:24:24;7.07;;;5.93;;
3309;SDS011;1667;53.238;10.394;2023-04-29T10:29:24;8.47;;;4.80;;
3309;SDS011;1667;53.238;10.394;2023-04-29T10:34:26;10.10;;;7.23;;
3309;SDS011;1667;53.238;10.394;2023-04-29T10:39:32;7.27;;;5.97;;
3309;SDS011;1667;53.238;10.394;2023-04-29T10:44:43;8.63;;;7.00;;
3309;SDS011;1667;53.238;10.394;2023-04-29T10:50:20;13.37;;;5.87;;
3309;SDS011;1667;53.238;10.394;2023-04-29T10:55:19;9.30;;;5.60;;
3309;SDS011;1667;53.238;10.394;2023-04-29T11:00:22;9.00;;;6.37;;
3309;SDS011;1667;53.238;10.394;2023-04-29T11:05:28;3.73;;;3.40;;
3309;SDS011;1667;53.238;10.394;2023-04-29T11:10:34;8.30;;;4.90;;
3309;SDS011;1667;53.238;10.394;2023-04-29T11:15:35;8.07;;;4.50;;
3309;SDS011;1667;53.238;10.394;2023-04-29T11:20:43;10.93;;;7.37;;
3309;SDS011;1667;53.238;10.394;2023-04-29T11:26:11;9.37;;;6.97;;
3309;SDS011;1667;53.238;10.394;2023-04-29T11:31:12;11.53;;;7.37;;
3309;SDS011;1667;53.238;10.394;2023-04-29T11:36:10;7.97;;;6.23;;
3309;SDS011;1667;53.238;10.394;2023-04-29T11:41:10;10.57;;;6.77;;
3309;SDS011;1667;53.238;10.394;2023-04-29T11:46:12;5.73;;;2.70;;
3309;SDS011;1667;53.238;10.394;2023-04-29T11:51:10;8.43;;;6.20;;
3309;SDS011;1667;53.238;10.394;2023-04-29T11:56:10;6.67;;;5.90;;
3309;SDS011;1667;53.238;10.394;2023-04-29T12:01:08;8.70;;;7.30;;
3309;SDS011;1667;53.238;10.394;2023-04-29T12:06:08;7.33;;;5.20;;
3309;SDS011;1667;53.238;10.394;2023-04-29T12:11:07;8.63;;;6.13;;
3309;SDS011;1667;53.238;10.394;2023-04-29T12:16:06;8.77;;;6.13;;
3309;SDS011;1667;53.238;10.394;2023-04-29T12:21:04;5.03;;;2.60;;
3309;SDS011;1667;53.238;10.394;2023-04-29T12:26:05;7.70;;;6.63;;
3309;SDS011;1667;53.238;10.394;2023-04-29T12:31:03;7.93;;;6.13;;
3309;SDS011;1667;53.238;10.394;2023-04-29T12:36:02;5.40;;;4.90;;
3309;SDS011;1667;53.238;10.394;2023-04-29T12:41:01;7.90;;;5.90;;
3309;SDS011;1667;53.238;10.394;2023-04-29T12:46:03;7.33;;;6.60;;
3309;SDS011;1667;53.238;10.394;2023-04-29T12:51:03;6.50;;;5.57;;
3309;SDS011;1667;53.238;10.394;2023-04-29T12:56:02;6.57;;;5.70;;
3309;SDS011;1667;53.238;10.394;2023-04-29T13:01:02;8.00;;;4.37;;
3309;SDS011;1667;53.238;10.394;2023-04-29T13:06:01;10.17;;;7.90;;
3309;SDS011;1667;53.238;10.394;2023-04-29T13:11:00;6.77;;;6.07;;
3309;SDS011;1667;53.238;10.394;2023-04-29T13:15:58;6.60;;;5.87;;
3309;SDS011;1667;53.238;10.394;2023-04-29T13:20:58;7.83;;;5.90;;
3309;SDS011;1667;53.238;10.394;2023-04-29T13:25:58;9.37;;;6.70;;
3309;SDS011;1667;53.238;10.394;2023-04-29T13:30:56;7.10;;;6.50;;
3309;SDS011;1667;53.238;10.394;2023-04-29T13:35:55;10.00;;;6.97;;
3309;SDS011;1667;53.238;10.394;2023-04-29T13:40:55;5.60;;;5.10;;
3309;SDS011;1667;53.238;10.394;2023-04-29T13:45:53;4.20;;;3.80;;
3309;SDS011;1667;53.238;10.394;2023-04-29T13:50:52;4.40;;;4.00;;
3309;SDS011;1667;53.238;10.394;2023-04-29T13:55:55;8.17;;;6.20;;
3309;SDS011;1667;53.238;10.394;2023-04-29T14:01:13;5.40;;;3.50;;
3309;SDS011;1667;53.238;10.394;2023-04-29T14:06:32;6.63;;;5.23;;
3309;SDS011;1667;53.238;10.394;2023-04-29T14:11:33;2.10;;;1.90;;
3309;SDS011;1667;53.238;10.394;2023-04-29T14:16:32;9.90;;;4.70;;
3309;SDS011;1667;53.238;10.394;2023-04-29T14:21:31;6.90;;;4.37;;
3309;SDS011;1667;53.238;10.394;2023-04-29T14:26:29;6.53;;;4.60;;
3309;SDS011;1667;53.238;10.394;2023-04-29T14:31:30;4.87;;;2.50;;
3309;SDS011;1667;53.238;10.394;2023-04-29T14:36:31;3.27;;;2.50;;
3309;SDS011;1667;53.238;10.394;2023-04-29T14:41:30;4.93;;;3.97;;
3309;SDS011;1667;53.238;10.394;2023-04-29T14:46:31;6.00;;;4.50;;
3309;SDS011;1667;53.238;10.394;2023-04-29T14:51:30;11.70;;;3.60;;
3309;SDS011;1667;53.238;10.394;2023-04-29T14:56:28;4.47;;;3.23;;
3309;SDS011;1667;53.238;10.394;2023-04-29T15:01:27;3.80;;;2.60;;
3309;SDS011;1667;53.238;10.394;2023-04-29T15:06:29;2.33;;;2.17;;
3309;SDS011;1667;53.238;10.394;2023-04-29T15:11:28;3.30;;;2.23;;
3309;SDS011;1667;53.238;10.394;2023-04-29T15:16:27;3.33;;;3.00;;
3309;SDS011;1667;53.238;10.394;2023-04-29T15:21:28;3.90;;;3.60;;
3309;SDS011;1667;53.238;10.394;2023-04-29T15:26:28;3.83;;;3.30;;
3309;SDS011;1667;53.238;10.394;2023-04-29T15:31:26;3.77;;;2.70;;
3309;SDS011;1667;53.238;10.394;2023-04-29T15:36:26;4.73;;;3.53;;
3309;SDS011;1667;53.238;10.394;2023-04-29T15:41:27;1.57;;;1.47;;
3309;SDS011;1667;53.238;10.394;2023-04-29T15:46:26;2.60;;;2.03;;
3309;SDS011;1667;53.238;10.394;2023-04-29T15:51:26;2.57;;;2.37;;
3309;SDS011;1667;53.238;10.394;2023-04-29T15:56:25;7.13;;;2.07;;
3309;SDS011;1667;53.238;10.394;2023-04-29T16:01:24;5.70;;;1.30;;
3309;SDS011;1667;53.238;10.394;2023-04-29T16:06:23;1.50;;;1.50;;
3309;SDS011;1667;53.238;10.394;2023-04-29T16:11:23;4.00;;;1.70;;
3309;SDS011;1667;53.238;10.394;2023-04-29T16:16:21;2.97;;;2.10;;
3309;SDS011;1667;53.238;10.394;2023-04-29T16:21:22;2.33;;;2.00;;
3309;SDS011;1667;53.238;10.394;2023-04-29T16:33:11;1.53;;;1.20;;
3309;SDS011;1667;53.238;10.394;2023-04-29T16:38:13;1.57;;;1.37;;
3309;SDS011;1667;53.238;10.394;2023-04-29T16:49:53;1.87;;;1.10;;
3309;SDS011;1667;53.238;10.394;2023-04-29T16:54:53;1.40;;;1.23;;
3309;SDS011;1667;53.238;10.394;2023-04-29T16:59:52;2.60;;;1.63;;
3309;SDS011;1667;53.238;10.394;2023-04-29T17:04:51;4.43;;;1.90;;
3309;SDS011;1667;53.238;10.394;2023-04-29T17:09:50;2.00;;;1.90;;
3309;SDS011;1667;53.238;10.394;2023-04-29T17:14:50;3.03;;;2.07;;
3309;SDS011;1667;53.238;10.394;2023-04-29T17:19:50;5.30;;;1.93;;
3309;SDS011;1667;53.238;10.394;2023-04-29T17:24:49;2.60;;;1.37;;
3309;SDS011;1667;53.238;10.394;2023-04-29T17:29:47;6.73;;;2.13;;
3309;SDS011;1667;53.238;10.394;2023-04-29T17:34:47;10.53;;;2.20;;
3309;SDS011;1667;53.238;10.394;2023-04-29T17:39:45;1.43;;;1.33;;
3309;SDS011;1667;53.238;10.394;2023-04-29T17:44:43;3.90;;;2.13;;
3309;SDS011;1667;53.238;10.394;2023-04-29T17:49:42;3.87;;;2.10;;
3309;SDS011;1667;53.238;10.394;2023-04-29T17:54:42;2.20;;;1.37;;
3309;SDS011;1667;53.238;10.394;2023-04-29T17:59:41;3.37;;;1.77;;
3309;SDS011;1667;53.238;10.394;2023-04-29T18:04:40;3.70;;;1.90;;
3309;SDS011;1667;53.238;10.394;2023-04-29T18:09:38;2.27;;;1.40;;
3309;SDS011;1667;53.238;10.394;2023-04-29T18:14:38;2.53;;;2.00;;
3309;SDS011;1667;53.238;10.394;2023-04-29T18:19:37;3.37;;;2.03;;
3309;SDS011;1667;53.238;10.394;2023-04-29T18:24:36;3.53;;;1.80;;
3309;SDS011;1667;53.238;10.394;2023-04-29T18:29:35;4.50;;;2.13;;
3309;SDS011;1667;53.238;10.394;2023-04-29T18:34:34;3.57;;;2.07;;
3309;SDS011;1667;53.238;10.394;2023-04-29T18:39:33;2.07;;;1.67;;
3309;SDS011;1667;53.238;10.394;2023-04-29T18:44:32;3.37;;;1.37;;
3309;SDS011;1667;53.238;10.394;2023-04-29T18:49:30;2.33;;;1.50;;
3309;SDS011;1667;53.238;10.394;2023-04-29T18:54:32;3.93;;;1.50;;
3309;SDS011;1667;53.238;10.394;2023-04-29T18:59:31;3.70;;;1.33;;
3309;SDS011;1667;53.238;10.394;2023-04-29T19:04:31;5.30;;;1.43;;
3309;SDS011;1667;53.238;10.394;2023-04-29T19:09:30;2.63;;;1.60;;
3309;SDS011;1667;53.238;10.394;2023-04-29T19:14:30;3.27;;;1.63;;
3309;SDS011;1667;53.238;10.394;2023-04-29T19:19:29;1.93;;;1.70;;
3309;SDS011;1667;53.238;10.394;2023-04-29T19:24:28;5.60;;;1.60;;
3309;SDS011;1667;53.238;10.394;2023-04-29T19:29:27;7.50;;;1.67;;
3309;SDS011;1667;53.238;10.394;2023-04-29T19:34:27;3.87;;;1.83;;
3309;SDS011;1667;53.238;10.394;2023-04-29T19:39:25;5.13;;;2.67;;
3309;SDS011;1667;53.238;10.394;2023-04-29T19:44:24;4.87;;;1.93;;
3309;SDS011;1667;53.238;10.394;2023-04-29T19:49:23;8.40;;;2.30;;
3309;SDS011;1667;53.238;10.394;2023-04-29T19:54:23;1.93;;;1.40;;
3309;SDS011;1667;53.238;10.394;2023-04-29T19:59:22;1.80;;;1.50;;
3309;SDS011;1667;53.238;10.394;2023-04-29T20:04:20;8.53;;;2.40;;
3309;SDS011;1667;53.238;10.394;2023-04-29T20:09:20;5.33;;;1.30;;
3309;SDS011;1667;53.238;10.394;2023-04-29T20:14:20;3.40;;;1.40;;
3309;SDS011;1667;53.238;10.394;2023-04-29T20:19:18;2.30;;;1.20;;
3309;SDS011;1667;53.238;10.394;2023-04-29T20:24:16;3.07;;;1.13;;
3309;SDS011;1667;53.238;10.394;2023-04-29T20:29:14;2.33;;;1.33;;
3309;SDS011;1667;53.238;10.394;2023-04-29T20:34:14;6.93;;;1.23;;
3309;SDS011;1667;53.238;10.394;2023-04-29T20:39:12;2.80;;;1.30;;
3309;SDS011;1667;53.238;10.394;2023-04-29T20:44:11;3.20;;;1.50;;
3309;SDS011;1667;53.238;10.394;2023-04-29T20:49:09;8.67;;;1.33;;
3309;SDS011;1667;53.238;10.394;2023-04-29T20:54:10;4.37;;;1.80;;
3309;SDS011;1667;53.238;10.394;2023-04-29T20:59:08;3.13;;;1.57;;
3309;SDS011;1667;53.238;10.394;2023-04-29T21:04:07;1.50;;;1.40;;
3309;SDS011;1667;53.238;10.394;2023-04-29T21:09:05;3.37;;;1.40;;
3309;SDS011;1667;53.238;10.394;2023-04-29T21:14:05;4.60;;;1.67;;
3309;SDS011;1667;53.238;10.394;2023-04-29T21:19:03;3.70;;;1.40;;
3309;SDS011;1667;53.238;10.394;2023-04-29T21:24:02;5.90;;;1.80;;
3309;SDS011;1667;53.238;10.394;2023-04-29T21:29:00;6.20;;;2.00;;
3309;SDS011;1667;53.238;10.394;2023-04-29T21:34:00;3.10;;;1.70;;
3309;SDS011;1667;53.238;10.394;2023-04-29T21:38:59;4.40;;;1.90;;
3309;SDS011;1667;53.238;10.394;2023-04-29T21:43:57;5.00;;;1.53;;
3309;SDS011;1667;53.238;10.394;2023-04-29T21:48:56;3.57;;;3.20;;
3309;SDS011;1667;53.238;10.394;2023-04-29T21:53:56;6.07;;;2.70;;
3309;SDS011;1667;53.238;10.394;2023-04-29T21:58:55;1.80;;;1.63;;
3309;SDS011;1667;53.238;10.394;2023-04-29T22:03:54;3.07;;;1.73;;
3309;SDS011;1667;53.238;10.394;2023-04-29T22:08:53;9.40;;;2.00;;
3309;SDS011;1667;53.238;10.394;2023-04-29T22:13:53;2.60;;;1.40;;
3309;SDS011;1667;53.238;10.394;2023-04-29T22:18:51;7.90;;;2.10;;
3309;SDS011;1667;53.238;10.394;2023-04-29T22:23:50;3.80;;;2.37;;
3309;SDS011;1667;53.238;10.394;2023-04-29T22:28:48;9.87;;;2.40;;
3309;SDS011;1667;53.238;10.394;2023-04-29T22:33:48;9.77;;;2.60;;
3309;SDS011;1667;53.238;10.394;2023-04-29T22:38:47;4.87;;;2.30;;
3309;SDS011;1667;53.238;10.394;2023-04-29T22:43:45;8.93;;;3.33;;
3309;SDS011;1667;53.238;10.394;2023-04-29T22:48:44;4.97;;;2.50;;
3309;SDS011;1667;53.238;10.394;2023-04-29T22:53:43;4.27;;;2.37;;
3309;SDS011;1667;53.238;10.394;2023-04-29T22:58:42;4.80;;;2.70;;
3309;SDS011;1667;53.238;10.394;2023-04-29T23:03:40;6.33;;;2.80;;
3309;SDS011;1667;53.238;10.394;2023-04-29T23:08:39;6.70;;;2.63;;
3309;SDS011;1667;53.238;10.394;2023-04-29T23:13:39;8.10;;;3.03;;
3309;SDS011;1667;53.238;10.394;2023-04-29T23:18:37;5.20;;;2.30;;
3309;SDS011;1667;53.238;10.394;2023-04-29T23:23:36;8.57;;;3.03;;
3309;SDS011;1667;53.238;10.394;2023-04-29T23:28:34;11.53;;;3.20;;
3309;SDS011;1667;53.238;10.394;2023-04-29T23:33:34;8.93;;;3.00;;
3309;SDS011;1667;53.238;10.394;2023-04-29T23:38:33;8.20;;;2.73;;
3309;SDS011;1667;53.238;10.394;2023-04-29T23:43:31;5.73;;;2.93;;
3309;SDS011;1667;53.238;10.394;2023-04-29T23:48:30;4.60;;;3.40;;
3309;SDS011;1667;53.238;10.394;2023-04-29T23:53:30;11.93;;;2.77;;
3309;SDS011;1667;53.238;10.394;2023-04-29T23:58:28;8.63;;;2.57;;
